Gloversville, New York
Current Conditions -  °F | °C
As of 8:35 AM on Wednesday 22 Oct 2014 (Local Time) from KNY0 Reporting Station
Overcast Overcast  
Wind Chill: 42°   Ceiling: 2300
Heat Index: 48°   Visibility: 10mi
Dew Point: 43°   Wind: 14mph
Humidity: 84%   Direction: 40°NE
Pressure: 30.09"   Gusts: 18mph
Location:  43.06°N, 74.34°W
Report Text: KNY0 221235Z AUTO 04012G16KT 10SM OVC023 09/06 A3009 RMK AO2 T00880062
Loading
Personal Weather Stations






























Interactive Weather Map New forecast layout! Learn more

10-Day Weather Forecast

Advertisements
Track Severe Weather on mobile